Flight Track Log - Related Links

Times and Time Zones

All times are in EDT time to prevent confusion due to time zone crossing. See the ASQ4577 flight status page for this flight to view local times or setup timezone preferences in your user account.

Time Position Orientation Groundspeed Altitude Reporting Facility
EDT Latitude Longitude Course Direction KTS MPH feet Rate Location/Type
Thu 08:35:00 PM 41.8500 -81.2626 90° East  Level FlightAware Approximate
Thu 08:36:00 PM 41.8799 -81.1208 73° East  Level FlightAware Approximate
Thu 08:37:00 PM 41.9047 -80.9774 84° East  Level FlightAware Approximate
Thu 08:38:00 PM 41.9174 -80.8305 71° East  Level FlightAware Approximate
Thu 08:39:00 PM 41.9489 -80.6888 75° East  Level FlightAware Approximate
Thu 08:40:00 PM 41.9667 -80.5439 90° East  Level FlightAware Approximate
Thu 08:41:00 PM 41.9824 -80.3980 78° East  Level FlightAware Approximate
Thu 08:42:00 PM 42.0167 -80.2748 90° East  Level FlightAware Approximate
Thu 08:43:00 PM 42.0300 -80.1284 78° East  Level FlightAware Approximate
Thu 08:44:00 PM 42.0518 -79.9831 79° East  Level FlightAware Approximate
Thu 08:45:00 PM 42.0742 -79.8380 77° East  Level FlightAware Approximate
Thu 08:46:00 PM 42.0973 -79.6929 78° East  Level FlightAware Approximate
Thu 08:47:00 PM 42.1195 -79.5476 79° East  Level FlightAware Approximate
Thu 08:48:00 PM 42.1413 -79.4021 79° East  Level FlightAware Approximate
Thu 08:49:00 PM 42.1628 -79.2565 79° East  Level FlightAware Approximate
Thu 08:50:00 PM 42.1839 -79.1107 82° East  Level FlightAware Approximate
Thu 08:51:00 PM 42.1988 -78.9635 82° East  Level FlightAware Approximate
Thu 08:52:00 PM 42.2134 -78.8162 82° East  Level FlightAware Approximate
Thu 08:53:00 PM 42.2319 -78.6697 80° East  Level FlightAware Approximate
Thu 08:54:00 PM 42.2514 -78.5234 79° East  Level FlightAware Approximate
Thu 08:55:00 PM 42.2724 -78.3773 79° East  Level FlightAware Approximate
Thu 08:56:00 PM 42.2904 -78.2306 82° East  Level FlightAware Approximate
Thu 08:57:00 PM 42.3053 -78.0831 82° East  Level FlightAware Approximate
Thu 08:58:00 PM 42.3200 -77.9356 82° East  Level FlightAware Approximate
Thu 08:59:00 PM 42.3347 -77.7881 81° East  Level FlightAware Approximate
Thu 09:00:00 PM 42.3519 -77.6409 81° East  Level FlightAware Approximate
Thu 09:01:00 PM 42.3689 -77.4937 81° East  Level FlightAware Approximate
Thu 09:02:00 PM 42.3862 -77.3466 79° East  Level FlightAware Approximate
Thu 09:03:00 PM 42.4072 -77.2003 79° East  Level FlightAware Approximate
Thu 09:04:00 PM 42.4281 -77.0539 79° East  Level FlightAware Approximate
Thu 09:05:00 PM 42.4467 -76.9069 81° East  Level FlightAware Approximate
Thu 09:06:00 PM 42.4644 -76.7596 81° East  Level FlightAware Approximate
Thu 09:07:00 PM 42.4819 -76.6123 81° East  Level FlightAware Approximate
Thu 09:08:00 PM 42.4866 -76.4637 77° East  Level FlightAware Approximate
Thu 09:09:00 PM 42.5000 -76.3164 90° East  Level FlightAware Approximate
Thu 09:10:00 PM 42.5259 -76.1748 82° East  Level FlightAware Approximate
Thu 09:11:00 PM 42.5415 -76.0269 81° East  Level FlightAware Approximate
Thu 09:12:00 PM 42.5500 -75.8784 90° East  Level FlightAware Approximate
Thu 09:13:00 PM 42.5667 -75.7320 90° East  Level FlightAware Approximate
Thu 09:14:00 PM 42.5778 -75.5833 83° East  Level FlightAware Approximate
Thu 09:15:00 PM 42.5935 -75.4354 80° East  Level FlightAware Approximate
Thu 09:16:00 PM 42.6095 -75.2875 82° East  Level FlightAware Approximate
Thu 09:17:00 PM 42.6239 -75.1392 82° East  Level FlightAware Approximate
Thu 09:18:00 PM 42.6382 -74.9908 82° East  Level FlightAware Approximate
Thu 09:19:00 PM 42.6534 -74.8426 79° East  Level FlightAware Approximate
Thu 09:20:00 PM 42.6667 -74.6947 90° East  Level FlightAware Approximate
Thu 09:21:00 PM 42.6835 -74.5480 83° East  Level FlightAware Approximate
Thu 09:22:00 PM 42.6959 -74.3992 83° East  Level FlightAware Approximate
Thu 09:23:00 PM 42.7091 -74.2505 83° East  Level FlightAware Approximate
Thu 09:24:00 PM 42.7167 -74.1013 90° East  Level FlightAware Approximate
Thu 09:25:00 PM 42.7235 -73.9523 79° East  Level FlightAware Approximate
Thu 09:26:00 PM 42.7333 -73.8038 90° East  Level FlightAware Approximate
Thu 09:27:00 PM 42.7333 -73.8000 90° East  Level FlightAware Approximate
Thu 09:28:00 PM 42.7491 -73.8020 90° East  Level Estimated
Thu 09:29:00 PM 42.7491 -73.8020 90° East  Level Estimated
Thu 09:30:00 PM 42.7491 -73.8020 90° East  Level Estimated
Thu 09:31:00 PM 42.7491 -73.8020 90° East  Level Estimated
Thu 09:32:00 PM 42.7491 -73.8020 90° East  Level Estimated

Login

Don't have an account? Register now (free) for customized features, flight alerts, and more!